Time;durP1;ratioP1;P1;durP2;ratioP2;P2;SDS_P1;SDS_P2;PMS_P1;PMS_P2;Temp;Humidity;BMP_temperature;BMP_pressure;BME280_temperature;BME280_humidity;BME280_pressure;Samples;Min_cycle;Max_cycle;Signal;HPM_P1;HPM_P2
2023/12/15 00:00:29;;;;;;;5.20;1.73;;;;;;;18.97;58.45;101565.41;4937566;28;21079;-75
2023/12/15 00:02:56;;;;;;;4.70;1.80;;;;;;;18.93;58.91;101570.19;4954760;28;20244;-75
2023/12/15 00:05:21;;;;;;;3.70;1.67;;;;;;;18.92;58.90;101565.63;4953230;28;20202;-75
2023/12/15 00:07:46;;;;;;;6.57;1.57;;;;;;;18.96;58.38;101583.78;4934606;28;20909;-74
2023/12/15 00:10:12;;;;;;;4.27;1.40;;;;;;;18.93;59.03;101580.78;4920852;28;20260;-74
2023/12/15 00:12:37;;;;;;;4.10;1.53;;;;;;;18.94;59.13;101579.59;4933255;28;20256;-75
2023/12/15 00:15:03;;;;;;;3.37;1.60;;;;;;;18.95;58.74;101576.38;4921476;28;20258;-73
2023/12/15 00:17:29;;;;;;;4.73;2.10;;;;;;;18.94;58.86;101591.88;4936976;28;20650;-74
2023/12/15 00:19:54;;;;;;;4.57;1.97;;;;;;;18.99;58.69;101591.66;4951957;28;20297;-75
2023/12/15 00:22:19;;;;;;;7.53;1.57;;;;;;;18.94;58.76;101586.16;4933101;28;20190;-74
2023/12/15 00:24:45;;;;;;;4.27;1.60;;;;;;;18.95;58.87;101590.69;4937370;28;20213;-75
2023/12/15 00:27:10;;;;;;;4.33;2.10;;;;;;;18.94;58.81;101591.03;4937858;28;20513;-74
2023/12/15 00:29:36;;;;;;;4.40;1.53;;;;;;;18.92;59.11;101596.28;4947854;28;20206;-74
2023/12/15 00:32:02;;;;;;;4.80;1.67;;;;;;;18.90;59.09;101598.66;4941741;28;20196;-74
2023/12/15 00:34:27;;;;;;;7.43;2.23;;;;;;;18.90;59.56;101599.50;4956291;28;20293;-74
2023/12/15 00:36:52;;;;;;;4.70;1.90;;;;;;;18.92;59.13;101605.69;4955794;28;20242;-75
2023/12/15 00:39:18;;;;;;;3.90;1.80;;;;;;;18.89;59.24;101606.41;4925669;28;20209;-71
2023/12/15 00:41:43;;;;;;;7.90;1.97;;;;;;;18.92;59.32;101599.97;4940388;28;20271;-72
2023/12/15 00:44:09;;;;;;;5.57;1.63;;;;;;;18.90;59.05;101610.94;4908375;29;20194;-71
2023/12/15 00:46:34;;;;;;;2.53;1.30;;;;;;;18.90;59.18;101613.81;4948274;28;20206;-71
2023/12/15 00:49:00;;;;;;;4.43;1.73;;;;;;;18.90;59.43;101618.69;4952809;29;20194;-71
2023/12/15 00:51:25;;;;;;;3.70;1.63;;;;;;;18.91;59.32;101617.53;4921763;29;20222;-72
2023/12/15 00:53:51;;;;;;;4.13;2.00;;;;;;;18.92;58.73;101622.03;4948140;28;20273;-71
2023/12/15 00:56:16;;;;;;;5.97;2.07;;;;;;;18.92;58.90;101622.03;4940831;28;20226;-71
2023/12/15 00:58:42;;;;;;;4.90;1.83;;;;;;;18.92;58.58;101633.50;4937590;28;20186;-71
2023/12/15 01:01:07;;;;;;;4.60;1.60;;;;;;;18.90;59.38;101630.13;4943831;28;20556;-72
2023/12/15 01:03:33;;;;;;;3.77;1.60;;;;;;;18.87;59.04;101628.81;4959100;28;20590;-71
2023/12/15 01:05:58;;;;;;;3.80;1.67;;;;;;;18.90;58.82;101641.56;4931377;28;20214;-71
2023/12/15 01:08:24;;;;;;;3.30;1.50;;;;;;;18.87;58.85;101636.56;4923921;28;20673;-72
2023/12/15 01:10:50;;;;;;;7.60;1.70;;;;;;;18.90;58.73;101647.28;4939202;28;20971;-71
2023/12/15 01:13:15;;;;;;;4.50;2.17;;;;;;;18.86;59.14;101652.88;4939732;28;20751;-72
2023/12/15 01:15:40;;;;;;;4.67;1.83;;;;;;;18.89;59.04;101663.66;4955710;28;20170;-71
2023/12/15 01:18:06;;;;;;;4.40;1.63;;;;;;;18.88;58.95;101659.13;4940000;28;20167;-72
2023/12/15 01:20:32;;;;;;;5.03;1.47;;;;;;;18.86;59.12;101664.34;4939798;28;20186;-71
2023/12/15 01:22:57;;;;;;;4.47;1.50;;;;;;;18.86;59.06;101672.09;4955857;28;20898;-72
2023/12/15 01:25:23;;;;;;;3.50;1.57;;;;;;;18.86;59.27;101667.19;4940423;28;20670;-72
2023/12/15 01:27:48;;;;;;;5.07;2.03;;;;;;;18.87;59.27;101666.00;4936614;28;20187;-72
2023/12/15 01:30:14;;;;;;;2.90;1.33;;;;;;;18.84;59.19;101666.72;4952668;28;20189;-72
2023/12/15 01:32:40;;;;;;;2.27;1.10;;;;;;;18.82;59.38;101671.94;4959526;28;20184;-72
2023/12/15 01:35:05;;;;;;;4.80;1.83;;;;;;;18.82;59.28;101669.06;4959438;28;20186;-71
2023/12/15 01:37:31;;;;;;;4.03;1.40;;;;;;;18.84;59.31;101669.59;4944328;28;20236;-72
2023/12/15 01:39:56;;;;;;;4.20;1.37;;;;;;;18.82;59.13;101671.94;4936638;28;20190;-71
2023/12/15 01:42:22;;;;;;;4.20;1.47;;;;;;;18.82;59.05;101674.81;4925379;28;20185;-69
2023/12/15 01:44:47;;;;;;;3.40;1.57;;;;;;;18.82;59.15;101674.81;4954730;28;20182;-68
2023/12/15 01:47:18;;;;;;;4.13;1.50;;;;;;;18.81;59.36;101681.72;4949029;28;20190;-69
2023/12/15 01:49:45;;;;;;;3.63;1.63;;;;;;;18.80;59.48;101684.91;4943128;28;20181;-69
2023/12/15 01:52:10;;;;;;;6.27;1.80;;;;;;;18.81;59.27;101684.56;4941377;28;20418;-68
2023/12/15 01:54:35;;;;;;;4.83;2.07;;;;;;;18.83;59.33;101689.97;4926286;29;20443;-68
2023/12/15 01:57:01;;;;;;;2.97;1.47;;;;;;;18.80;59.96;101694.34;4922524;29;20163;-75
2023/12/15 01:59:26;;;;;;;4.20;1.87;;;;;;;18.85;59.68;101691.28;4927545;29;20198;-72
2023/12/15 02:01:52;;;;;;;3.57;1.70;;;;;;;18.81;59.13;101695.22;4955164;28;20180;-71
2023/12/15 02:04:17;;;;;;;2.90;1.23;;;;;;;18.80;59.24;101694.34;4951159;28;20178;-71
2023/12/15 02:06:42;;;;;;;3.10;1.50;;;;;;;18.82;58.91;101705.47;4958925;28;20189;-72
2023/12/15 02:09:08;;;;;;;4.13;1.57;;;;;;;18.81;59.15;101706.66;4929096;28;20189;-72
2023/12/15 02:11:33;;;;;;;4.17;1.70;;;;;;;18.83;59.09;101710.84;4939466;28;20174;-71
2023/12/15 02:13:59;;;;;;;4.80;1.50;;;;;;;18.79;59.33;101715.56;4955414;28;20162;-71
2023/12/15 02:16:24;;;;;;;3.40;1.83;;;;;;;18.81;59.15;101726.69;4955402;28;20185;-71
2023/12/15 02:18:50;;;;;;;2.40;1.30;;;;;;;18.79;59.46;101723.31;4936984;28;20183;-71
2023/12/15 02:21:15;;;;;;;3.17;1.83;;;;;;;18.78;59.40;101718.78;4939226;28;20178;-71
2023/12/15 02:23:40;;;;;;;6.20;1.70;;;;;;;18.78;59.49;101722.50;4920371;28;20194;-72
2023/12/15 02:26:06;;;;;;;3.03;1.47;;;;;;;18.78;59.37;101716.78;4938551;28;20281;-72
2023/12/15 02:28:31;;;;;;;3.63;1.27;;;;;;;18.77;59.19;101717.94;4939473;28;20197;-72
2023/12/15 02:30:57;;;;;;;4.50;1.97;;;;;;;18.75;59.40;101726.03;4940368;28;20479;-71
2023/12/15 02:33:22;;;;;;;3.10;1.90;;;;;;;18.77;59.65;101722.84;4958275;28;20763;-72
2023/12/15 02:35:50;;;;;;;5.73;1.73;;;;;;;18.76;59.80;101724.03;4984505;28;20186;-71
2023/12/15 02:38:18;;;;;;;3.80;1.63;;;;;;;18.75;59.44;101733.78;4939413;28;21005;-72
2023/12/15 02:40:44;;;;;;;4.83;1.70;;;;;;;18.74;59.21;101735.81;4935375;29;20807;-71
2023/12/15 02:43:10;;;;;;;3.20;1.50;;;;;;;18.74;59.60;101735.81;4936059;28;20787;-71
2023/12/15 02:45:36;;;;;;;6.97;1.80;;;;;;;18.75;59.16;101748.91;4960150;28;20452;-72
2023/12/15 02:48:02;;;;;;;4.50;1.50;;;;;;;18.76;58.99;101746.91;4958659;28;20827;-71
2023/12/15 02:50:28;;;;;;;3.60;1.70;;;;;;;18.74;59.47;101747.25;4936345;28;20441;-72
2023/12/15 02:52:53;;;;;;;2.97;1.30;;;;;;;18.75;59.33;101748.91;4922738;28;20422;-71
2023/12/15 02:55:19;;;;;;;3.33;1.60;;;;;;;18.74;59.41;101749.25;4921752;29;20186;-71
2023/12/15 02:57:44;;;;;;;2.90;1.50;;;;;;;18.72;59.34;101749.59;4934801;29;20168;-71
2023/12/15 03:00:10;;;;;;;2.80;1.53;;;;;;;18.73;59.58;101754.16;4934421;28;20178;-71
2023/12/15 03:02:36;;;;;;;2.93;1.50;;;;;;;18.73;59.84;101747.59;4918447;29;20201;-71
2023/12/15 03:05:01;;;;;;;3.80;1.33;;;;;;;18.71;59.69;101752.84;4937399;28;20426;-71
2023/12/15 03:07:27;;;;;;;3.80;1.87;;;;;;;18.73;59.09;101745.59;4953696;28;20225;-71
2023/12/15 03:09:52;;;;;;;3.80;1.50;;;;;;;18.70;59.67;101752.00;4951627;28;20186;-71
2023/12/15 03:12:18;;;;;;;4.70;1.77;;;;;;;18.71;59.70;101750.78;4937937;28;20190;-71
2023/12/15 03:14:43;;;;;;;2.70;1.20;;;;;;;18.68;59.15;101754.38;4938458;28;20264;-71
2023/12/15 03:17:08;;;;;;;4.33;1.60;;;;;;;18.70;59.75;101769.16;4922427;28;20558;-71
2023/12/15 03:19:34;;;;;;;3.80;1.70;;;;;;;18.70;59.28;101765.44;4937323;28;20261;-68
2023/12/15 03:21:59;;;;;;;2.40;1.43;;;;;;;18.70;59.72;101769.16;4956594;28;20745;-68
2023/12/15 03:24:25;;;;;;;6.50;2.00;;;;;;;18.69;59.72;101770.34;4924632;28;20634;-68
2023/12/15 03:26:50;;;;;;;3.93;1.63;;;;;;;18.69;59.19;101778.94;4939707;28;20229;-68
2023/12/15 03:29:16;;;;;;;2.83;1.70;;;;;;;18.71;58.88;101778.59;4937987;28;20638;-68
2023/12/15 03:31:41;;;;;;;2.60;1.43;;;;;;;18.68;59.68;101777.25;4947286;28;20166;-68
2023/12/15 03:34:07;;;;;;;2.53;1.50;;;;;;;18.69;59.05;101786.66;4975312;28;20224;-68
2023/12/15 03:36:38;;;;;;;3.87;1.40;;;;;;;18.68;59.57;101780.13;4970035;28;20162;-68
2023/12/15 03:39:07;;;;;;;2.57;1.03;;;;;;;18.68;59.69;101782.97;4939791;28;20446;-68
2023/12/15 03:41:32;;;;;;;5.43;1.70;;;;;;;18.71;59.11;101782.25;4924202;29;20439;-68
2023/12/15 03:43:58;;;;;;;6.90;1.63;;;;;;;18.66;59.00;101785.31;4970217;28;20913;-68
2023/12/15 03:46:23;;;;;;;5.03;1.50;;;;;;;18.65;59.63;101788.53;4965979;28;20229;-68
2023/12/15 03:48:49;;;;;;;2.83;1.47;;;;;;;18.66;59.32;101785.31;4939917;28;20654;-68
2023/12/15 03:51:14;;;;;;;3.40;1.50;;;;;;;18.66;59.56;101785.31;4923574;28;20213;-68
2023/12/15 03:53:40;;;;;;;2.70;1.40;;;;;;;18.64;60.23;101787.72;4955414;28;20179;-68
2023/12/15 03:56:05;;;;;;;2.20;1.10;;;;;;;18.64;59.94;101781.13;4926618;29;20642;-68
2023/12/15 03:58:31;;;;;;;4.17;1.30;;;;;;;18.65;59.40;101789.38;4945555;28;20448;-68
2023/12/15 04:00:56;;;;;;;3.50;1.10;;;;;;;18.67;59.26;101787.00;4953807;28;20186;-68
2023/12/15 04:03:22;;;;;;;4.83;1.83;;;;;;;18.64;59.23;101787.72;4939598;28;20182;-68
2023/12/15 04:05:47;;;;;;;3.03;1.37;;;;;;;18.63;59.50;101788.03;4942861;28;20210;-67
2023/12/15 04:08:13;;;;;;;2.67;1.30;;;;;;;18.64;59.45;101796.28;4959199;28;20197;-68
2023/12/15 04:10:39;;;;;;;4.47;1.63;;;;;;;18.62;59.22;101800.69;4974888;28;20173;-68
2023/12/15 04:13:05;;;;;;;4.10;1.57;;;;;;;18.65;59.79;101802.81;4971827;28;20212;-68
2023/12/15 04:15:30;;;;;;;4.03;1.63;;;;;;;18.63;59.42;101803.19;4943184;28;20186;-68
2023/12/15 04:17:56;;;;;;;3.27;1.80;;;;;;;18.63;59.35;101808.91;4942906;28;20186;-68
2023/12/15 04:20:21;;;;;;;2.57;1.60;;;;;;;18.62;59.44;101807.22;4927683;28;20182;-68
2023/12/15 04:22:47;;;;;;;2.90;1.27;;;;;;;18.62;59.77;101812.13;4959469;28;20195;-68
2023/12/15 04:25:12;;;;;;;3.13;1.53;;;;;;;18.63;59.04;101820.38;4943912;28;20198;-68
2023/12/15 04:27:38;;;;;;;2.80;1.43;;;;;;;18.59;59.56;101813.66;4942786;28;20261;-67
2023/12/15 04:30:04;;;;;;;2.80;1.30;;;;;;;18.65;59.55;101811.41;4943261;28;20182;-69
2023/12/15 04:32:29;;;;;;;4.53;1.40;;;;;;;18.62;59.19;101821.53;4926111;28;20186;-69
2023/12/15 04:34:55;;;;;;;3.50;1.10;;;;;;;18.62;59.14;101832.16;4943601;28;20468;-68
2023/12/15 04:37:20;;;;;;;3.70;1.40;;;;;;;18.63;59.39;101825.22;4943011;28;20974;-68
2023/12/15 04:39:46;;;;;;;4.57;1.80;;;;;;;18.61;59.91;101834.16;4959288;28;20174;-68
2023/12/15 04:42:12;;;;;;;2.50;1.30;;;;;;;18.61;59.08;101827.63;4958676;28;20190;-69
2023/12/15 04:44:38;;;;;;;3.77;1.60;;;;;;;18.66;58.83;101836.81;4926900;28;20178;-68
2023/12/15 04:47:04;;;;;;;3.27;1.80;;;;;;;18.63;59.26;101837.53;4941358;28;20465;-68
2023/12/15 04:49:29;;;;;;;3.73;1.30;;;;;;;18.62;59.30;101841.53;4941819;28;20218;-68
2023/12/15 04:51:54;;;;;;;2.50;1.10;;;;;;;18.61;59.02;101831.28;4941041;28;20186;-69
2023/12/15 04:54:20;;;;;;;3.63;1.30;;;;;;;18.59;59.31;101833.66;4956668;28;20600;-68
2023/12/15 04:56:45;;;;;;;3.00;1.40;;;;;;;18.61;59.47;101850.50;4939834;28;20701;-69
2023/12/15 04:59:11;;;;;;;3.03;1.30;;;;;;;18.61;59.58;101853.34;4941551;28;20182;-69
2023/12/15 05:01:36;;;;;;;4.10;1.50;;;;;;;18.61;59.16;101862.75;4926362;28;20265;-69
2023/12/15 05:04:02;;;;;;;2.43;1.10;;;;;;;18.62;59.07;101869.31;4957328;28;20201;-68
2023/12/15 05:06:28;;;;;;;5.10;1.73;;;;;;;18.61;59.66;101868.47;4942759;28;20206;-68
2023/12/15 05:08:53;;;;;;;4.10;1.47;;;;;;;18.62;58.46;101870.16;4944806;29;20183;-68
2023/12/15 05:11:19;;;;;;;2.20;1.17;;;;;;;18.60;59.08;101877.41;4939932;29;20183;-69
2023/12/15 05:13:44;;;;;;;2.80;1.30;;;;;;;18.61;59.03;101881.97;4927164;28;20257;-68
2023/12/15 05:16:10;;;;;;;3.40;1.37;;;;;;;18.57;59.69;101878.91;4941368;28;20166;-69
2023/12/15 05:18:35;;;;;;;3.43;1.40;;;;;;;18.61;59.24;101891.34;4956331;28;20206;-68
2023/12/15 05:21:01;;;;;;;5.13;1.50;;;;;;;18.59;59.23;101882.28;4942102;28;20213;-68
2023/12/15 05:23:26;;;;;;;2.50;1.40;;;;;;;18.63;59.03;101894.75;4927214;28;20182;-68
2023/12/15 05:25:52;;;;;;;4.93;1.90;;;;;;;18.61;59.77;101905.66;4926519;29;20202;-68
2023/12/15 05:28:17;;;;;;;3.93;1.33;;;;;;;18.61;59.13;101905.66;4944320;28;20190;-68
2023/12/15 05:30:43;;;;;;;2.43;1.20;;;;;;;18.60;59.01;101909.72;4958212;28;20183;-69
2023/12/15 05:33:08;;;;;;;2.70;1.40;;;;;;;18.61;59.86;101910.56;4951537;28;20645;-68
2023/12/15 05:35:34;;;;;;;3.30;1.40;;;;;;;18.61;59.18;101919.97;4942192;28;20213;-68
2023/12/15 05:37:59;;;;;;;3.73;1.73;;;;;;;18.60;59.61;101923.16;4926551;28;20234;-68
2023/12/15 05:40:25;;;;;;;4.17;1.30;;;;;;;18.59;59.19;101921.50;4926394;28;20226;-68
2023/12/15 05:42:50;;;;;;;3.47;1.40;;;;;;;18.59;59.33;101933.78;4957307;28;20181;-68
2023/12/15 05:45:16;;;;;;;3.57;1.60;;;;;;;18.59;59.17;101933.78;4927572;28;20191;-68
2023/12/15 05:47:41;;;;;;;3.03;1.40;;;;;;;18.61;58.72;101931.41;4951183;28;20666;-68
2023/12/15 05:50:07;;;;;;;3.10;1.20;;;;;;;18.63;59.36;101934.78;4924507;28;20179;-68
2023/12/15 05:52:32;;;;;;;2.70;1.57;;;;;;;18.59;59.10;101944.38;4940936;28;20178;-68
2023/12/15 05:54:57;;;;;;;2.50;1.20;;;;;;;18.61;59.04;101942.84;4940749;28;20178;-70
2023/12/15 05:57:23;;;;;;;2.30;1.30;;;;;;;18.60;59.20;101955.47;4927007;28;20186;-68
2023/12/15 05:59:48;;;;;;;2.43;1.30;;;;;;;18.60;58.98;101966.91;4941055;28;20167;-68
2023/12/15 06:02:14;;;;;;;3.37;1.67;;;;;;;18.59;59.30;101967.25;4952597;28;20859;-68
2023/12/15 06:04:39;;;;;;;2.53;1.20;;;;;;;18.59;59.21;101959.53;4976780;28;20169;-68
2023/12/15 06:07:05;;;;;;;2.27;1.13;;;;;;;18.58;59.30;101972.16;4960487;28;20223;-68
2023/12/15 06:09:30;;;;;;;2.77;1.50;;;;;;;18.61;59.12;101974.31;4954073;28;20186;-68
2023/12/15 06:11:56;;;;;;;2.83;1.40;;;;;;;18.59;58.94;101973.81;4957309;28;20205;-68
2023/12/15 06:14:21;;;;;;;7.80;1.50;;;;;;;18.59;59.61;101976.69;4941388;28;20190;-69
2023/12/15 06:16:47;;;;;;;2.57;1.57;;;;;;;18.57;59.62;101983.94;4940322;28;20190;-67
2023/12/15 06:19:13;;;;;;;3.67;1.40;;;;;;;18.59;59.33;101982.41;4941377;28;20195;-68
2023/12/15 06:21:39;;;;;;;3.33;1.33;;;;;;;18.59;58.85;101988.13;4957032;28;20848;-68
2023/12/15 06:24:04;;;;;;;6.10;1.47;;;;;;;18.59;59.11;101998.72;4941693;28;20422;-68
2023/12/15 06:26:30;;;;;;;3.80;1.53;;;;;;;18.59;59.32;102008.16;4937814;28;20712;-69
2023/12/15 06:28:55;;;;;;;3.07;1.30;;;;;;;18.61;59.35;102002.91;4925502;28;20182;-68
2023/12/15 06:31:21;;;;;;;2.77;1.23;;;;;;;18.56;59.22;102008.81;4961966;28;20841;-69
2023/12/15 06:33:46;;;;;;;4.10;1.20;;;;;;;18.58;59.28;102017.94;4944458;28;20256;-68
2023/12/15 06:36:12;;;;;;;4.40;1.90;;;;;;;18.59;59.29;102013.88;4937109;29;20947;-69
2023/12/15 06:38:44;;;;;;;2.27;1.20;;;;;;;18.59;59.08;102013.88;4950202;28;20233;-69
2023/12/15 06:41:13;;;;;;;2.63;1.20;;;;;;;18.59;59.18;102016.72;4957329;28;20174;-68
2023/12/15 06:43:42;;;;;;;3.27;1.50;;;;;;;18.59;59.11;102013.88;4956469;28;20425;-69
2023/12/15 06:46:07;;;;;;;3.43;1.20;;;;;;;18.60;59.43;102026.13;4948982;28;20469;-68
2023/12/15 06:48:34;;;;;;;2.50;1.30;;;;;;;18.61;59.58;102022.94;4958430;28;20452;-74
2023/12/15 06:50:59;;;;;;;3.90;1.60;;;;;;;18.62;58.76;102026.66;4941512;28;20441;-74
2023/12/15 06:53:25;;;;;;;2.90;1.60;;;;;;;18.61;59.77;102027.84;4953842;28;20189;-74
2023/12/15 06:55:50;;;;;;;4.77;1.77;;;;;;;18.59;58.99;102031.03;4920173;28;20187;-75
2023/12/15 06:58:16;;;;;;;2.40;1.20;;;;;;;18.62;58.98;102032.38;4923103;28;20182;-74
2023/12/15 07:00:42;;;;;;;1.93;1.13;;;;;;;18.59;59.66;102038.78;4939106;28;20174;-75
2023/12/15 07:03:08;;;;;;;2.33;1.20;;;;;;;18.60;59.08;102032.72;4936760;29;20199;-75
2023/12/15 07:05:34;;;;;;;3.53;1.40;;;;;;;18.63;58.58;102037.78;4935317;29;20553;-75
2023/12/15 07:08:03;;;;;;;2.47;1.30;;;;;;;18.60;59.75;102037.56;4940550;28;20190;-75
2023/12/15 07:10:28;;;;;;;2.20;1.00;;;;;;;18.61;59.20;102040.09;4939762;28;20785;-74
2023/12/15 07:12:54;;;;;;;2.50;1.23;;;;;;;18.60;59.01;102049.88;4938834;28;20477;-75
2023/12/15 07:15:19;;;;;;;2.87;1.20;;;;;;;18.63;59.06;102048.34;4954497;28;20681;-74
2023/12/15 07:17:45;;;;;;;3.10;1.17;;;;;;;18.60;58.33;102047.00;4922081;28;20270;-75
2023/12/15 07:20:10;;;;;;;2.13;1.27;;;;;;;18.60;58.72;102060.47;4922985;28;20665;-75
2023/12/15 07:22:36;;;;;;;2.47;1.30;;;;;;;18.59;59.16;102070.22;4919080;29;20191;-75
2023/12/15 07:25:01;;;;;;;3.20;1.27;;;;;;;18.60;59.18;102069.03;4919551;29;20223;-74
2023/12/15 07:27:27;;;;;;;2.60;1.47;;;;;;;18.59;59.47;102075.94;4931550;29;20226;-74
2023/12/15 07:29:52;;;;;;;2.53;1.00;;;;;;;18.59;59.26;102076.81;4934440;29;20203;-75
2023/12/15 07:32:18;;;;;;;2.50;1.37;;;;;;;18.62;59.16;102073.25;4969443;28;20182;-75
2023/12/15 07:34:43;;;;;;;2.40;1.20;;;;;;;18.61;58.94;102077.28;4948261;28;20198;-75
2023/12/15 07:37:09;;;;;;;3.13;1.40;;;;;;;18.60;59.30;102089.06;4945464;28;20710;-74
2023/12/15 07:39:34;;;;;;;2.87;1.40;;;;;;;18.59;59.10;102087.41;4942306;28;20199;-75
2023/12/15 07:42:00;;;;;;;4.17;1.80;;;;;;;18.60;59.02;102094.78;4935768;28;20209;-75
2023/12/15 07:44:25;;;;;;;2.37;1.10;;;;;;;18.61;59.24;102091.59;4937328;28;20705;-74
2023/12/15 07:46:54;;;;;;;3.57;1.50;;;;;;;18.60;58.92;102095.66;4937167;28;20202;-75
2023/12/15 07:49:20;;;;;;;2.77;1.10;;;;;;;18.61;59.19;102090.78;4924199;29;20225;-74
2023/12/15 07:51:45;;;;;;;3.07;1.30;;;;;;;18.59;59.19;102096.81;4918604;29;20399;-75
2023/12/15 07:54:11;;;;;;;2.40;1.50;;;;;;;18.60;59.52;102103.38;4949848;28;20178;-75
2023/12/15 07:56:36;;;;;;;2.60;1.67;;;;;;;18.60;58.95;102104.22;4936167;28;20182;-74
2023/12/15 07:59:02;;;;;;;2.00;1.17;;;;;;;18.60;58.87;102106.22;4935566;29;20215;-72
2023/12/15 08:01:27;;;;;;;3.67;1.50;;;;;;;18.61;59.04;102111.63;4915070;28;20201;-71
2023/12/15 08:03:53;;;;;;;2.80;1.33;;;;;;;18.60;59.09;102117.69;4939245;28;20660;-71
2023/12/15 08:06:19;;;;;;;3.20;1.40;;;;;;;18.59;59.43;102124.59;4938553;28;20194;-71
2023/12/15 08:08:45;;;;;;;2.23;1.10;;;;;;;18.59;59.23;102128.28;4936861;28;20608;-72
2023/12/15 08:11:10;;;;;;;3.53;1.50;;;;;;;18.60;59.25;102129.97;4935852;29;20182;-71
2023/12/15 08:13:39;;;;;;;3.03;1.33;;;;;;;18.59;59.13;102134.00;4918142;29;20942;-72
2023/12/15 08:16:07;;;;;;;3.40;1.40;;;;;;;18.60;58.98;102143.41;4942172;28;20175;-71
2023/12/15 08:18:33;;;;;;;2.60;1.20;;;;;;;18.59;59.51;102134.00;4953306;28;20425;-71
2023/12/15 08:20:59;;;;;;;2.50;1.30;;;;;;;18.64;59.13;102142.44;4936089;28;20500;-71
2023/12/15 08:23:24;;;;;;;2.73;1.10;;;;;;;18.63;58.72;102145.63;4953274;28;20205;-72
2023/12/15 08:25:50;;;;;;;3.30;1.20;;;;;;;18.62;58.89;102144.75;4937257;28;20273;-72
2023/12/15 08:28:15;;;;;;;2.73;1.10;;;;;;;18.64;58.59;102148.16;4937656;28;20198;-72
2023/12/15 08:30:41;;;;;;;1.90;1.20;;;;;;;18.60;58.77;102150.00;4927052;29;20697;-72
2023/12/15 08:33:06;;;;;;;3.10;1.40;;;;;;;18.62;59.19;102155.38;4953467;28;20181;-71
2023/12/15 08:35:32;;;;;;;2.17;1.20;;;;;;;18.62;59.37;102156.22;4950085;28;20634;-71
2023/12/15 08:37:58;;;;;;;3.23;1.40;;;;;;;18.62;59.18;102150.50;4935125;28;20253;-71
2023/12/15 08:40:24;;;;;;;2.13;1.20;;;;;;;18.63;59.14;102157.91;4936333;28;20163;-71
2023/12/15 08:42:50;;;;;;;3.20;1.50;;;;;;;18.60;59.10;102175.75;4924508;29;21359;-71
2023/12/15 08:45:15;;;;;;;2.30;1.00;;;;;;;18.62;58.84;102178.28;4933929;29;20633;-71
2023/12/15 08:47:41;;;;;;;1.77;1.20;;;;;;;18.63;58.83;102169.34;4950786;29;20619;-71
2023/12/15 08:50:06;;;;;;;2.73;1.47;;;;;;;18.63;58.63;102179.94;4935504;29;20175;-71
2023/12/15 08:52:31;;;;;;;2.73;1.10;;;;;;;18.62;59.17;102176.22;4938912;28;20178;-72
2023/12/15 08:54:57;;;;;;;2.53;1.30;;;;;;;18.62;58.76;102170.50;4920705;29;20179;-71
2023/12/15 08:57:23;;;;;;;2.47;1.47;;;;;;;18.61;59.18;102170.88;4935425;28;20210;-71
2023/12/15 08:59:48;;;;;;;2.40;1.50;;;;;;;18.65;58.80;102178.44;4924620;28;20182;-70
2023/12/15 09:02:14;;;;;;;2.10;1.10;;;;;;;18.62;59.06;102175.41;4940485;28;20436;-71
2023/12/15 09:04:39;;;;;;;2.23;1.17;;;;;;;18.61;59.00;102183.13;4943462;28;20178;-71
2023/12/15 09:07:07;;;;;;;2.50;1.23;;;;;;;18.64;59.43;102181.63;4965467;28;20733;-68
2023/12/15 09:09:36;;;;;;;3.43;1.53;;;;;;;18.64;59.02;102179.63;4975465;28;20163;-68
2023/12/15 09:12:02;;;;;;;2.63;1.40;;;;;;;18.62;58.72;102184.81;4958018;28;20476;-69
2023/12/15 09:14:29;;;;;;;3.20;1.53;;;;;;;18.61;59.61;102188.03;4927156;29;20849;-68
2023/12/15 09:16:56;;;;;;;2.70;1.17;;;;;;;18.63;59.03;102191.38;4926025;28;20175;-68
2023/12/15 09:19:23;;;;;;;2.30;1.17;;;;;;;18.67;58.84;102196.09;4942822;28;20414;-68
2023/12/15 09:21:49;;;;;;;2.23;1.20;;;;;;;18.63;58.85;102186.53;4940083;28;20505;-68
2023/12/15 09:24:14;;;;;;;2.83;1.50;;;;;;;18.64;58.99;102195.94;4956610;28;20429;-68
2023/12/15 09:26:42;;;;;;;1.93;0.97;;;;;;;18.62;58.58;102196.25;4941441;28;20210;-70
2023/12/15 09:29:08;;;;;;;2.10;1.10;;;;;;;18.63;59.10;102200.81;4938483;29;20985;-68
2023/12/15 09:31:34;;;;;;;4.60;1.43;;;;;;;18.63;59.07;102209.41;4938982;29;20407;-69
2023/12/15 09:33:59;;;;;;;3.70;1.30;;;;;;;18.66;58.81;102214.44;4938271;29;20195;-68
2023/12/15 09:36:26;;;;;;;2.23;1.33;;;;;;;18.62;59.05;102222.00;4922022;28;20187;-70
2023/12/15 09:38:52;;;;;;;2.07;1.17;;;;;;;18.65;58.76;102217.63;4941044;28;20226;-69
2023/12/15 09:41:18;;;;;;;2.13;1.17;;;;;;;18.64;58.60;102213.09;4958090;28;20418;-69
2023/12/15 09:43:44;;;;;;;3.13;1.30;;;;;;;18.65;58.88;102212.75;4957021;28;20468;-69
2023/12/15 09:46:09;;;;;;;2.63;1.40;;;;;;;18.62;59.28;102210.56;4941314;28;20302;-69
2023/12/15 09:48:35;;;;;;;2.80;1.20;;;;;;;18.67;58.67;102226.75;4930964;28;20183;-70
2023/12/15 09:51:02;;;;;;;2.40;1.20;;;;;;;18.65;59.22;102229.94;4938569;29;20190;-70
2023/12/15 09:53:29;;;;;;;3.40;1.50;;;;;;;18.67;58.52;102229.59;4950710;28;20532;-69
2023/12/15 09:55:54;;;;;;;2.60;1.30;;;;;;;18.63;59.01;102232.28;4925619;28;20504;-68
2023/12/15 09:58:20;;;;;;;2.93;1.40;;;;;;;18.69;58.35;102236.66;4941046;28;20402;-68
2023/12/15 10:00:45;;;;;;;2.10;1.50;;;;;;;18.69;59.09;102230.09;4941259;28;20288;-68
2023/12/15 10:03:11;;;;;;;2.33;1.23;;;;;;;18.65;58.93;102229.06;4976734;28;20208;-69
2023/12/15 10:05:37;;;;;;;2.23;1.13;;;;;;;18.64;58.60;102236.84;4973306;28;20215;-69
2023/12/15 10:08:02;;;;;;;2.70;1.50;;;;;;;18.66;58.96;102234.47;4928595;28;20448;-69
2023/12/15 10:10:28;;;;;;;3.23;1.17;;;;;;;18.67;58.33;102236.16;4944368;28;20183;-70
2023/12/15 10:12:56;;;;;;;5.07;1.70;;;;;;;18.65;59.00;102241.38;4972274;28;20182;-68
2023/12/15 10:15:22;;;;;;;2.70;1.13;;;;;;;18.68;58.96;102242.72;4940336;28;20479;-70
2023/12/15 10:17:49;;;;;;;2.03;1.00;;;;;;;18.69;58.81;102252.97;4938001;28;20434;-75
2023/12/15 10:20:14;;;;;;;2.80;1.10;;;;;;;18.66;58.77;102245.91;4954773;28;20221;-74
2023/12/15 10:22:39;;;;;;;2.90;1.20;;;;;;;18.69;58.60;102245.25;4938326;28;20406;-75
2023/12/15 10:25:21;;;;;;;2.70;1.30;;;;;;;18.66;58.80;102254.50;4938243;28;20613;-74
2023/12/15 10:27:48;;;;;;;1.97;1.03;;;;;;;18.68;58.84;102263.59;4936838;28;20191;-75
2023/12/15 10:30:15;;;;;;;3.93;1.10;;;;;;;18.69;58.73;102264.44;4919416;29;21218;-74
2023/12/15 10:32:40;;;;;;;2.60;1.40;;;;;;;18.69;59.06;102253.84;4933246;28;20503;-75
2023/12/15 10:35:06;;;;;;;3.53;1.27;;;;;;;18.67;59.02;102258.22;4957475;28;20445;-74
2023/12/15 10:37:32;;;;;;;2.93;1.20;;;;;;;18.66;58.56;102257.34;4947853;28;20256;-75
2023/12/15 10:39:57;;;;;;;2.43;1.33;;;;;;;18.68;58.36;102249.31;4939378;28;20427;-75
2023/12/15 10:42:23;;;;;;;3.67;1.50;;;;;;;18.73;58.30;102262.59;4937543;28;20159;-75
2023/12/15 10:44:49;;;;;;;1.93;1.03;;;;;;;18.72;58.19;102264.59;4938888;28;20186;-75
2023/12/15 10:47:14;;;;;;;2.00;0.90;;;;;;;18.71;58.73;102264.94;4957770;28;20206;-74
2023/12/15 10:49:40;;;;;;;3.40;1.47;;;;;;;18.69;58.73;102261.56;4922811;28;20180;-75
2023/12/15 10:52:06;;;;;;;2.83;0.93;;;;;;;18.71;58.63;102260.06;4939074;28;20233;-75
2023/12/15 10:54:31;;;;;;;3.93;1.40;;;;;;;18.69;58.97;102259.56;4954892;28;20163;-75
2023/12/15 10:56:56;;;;;;;2.70;1.60;;;;;;;18.71;58.34;102250.66;4953892;28;20190;-75
2023/12/15 10:59:22;;;;;;;2.33;1.10;;;;;;;18.67;58.81;102250.44;4938982;28;20175;-74
2023/12/15 11:01:47;;;;;;;2.60;1.43;;;;;;;18.70;58.63;102257.53;4955089;28;20186;-75
2023/12/15 11:04:20;;;;;;;2.97;1.17;;;;;;;18.69;58.96;102252.97;4938510;28;20191;-75
2023/12/15 11:06:46;;;;;;;2.20;1.20;;;;;;;18.73;58.11;102257.72;4954614;28;20616;-75
2023/12/15 11:09:11;;;;;;;2.73;1.30;;;;;;;18.72;58.17;102258.03;4908595;29;20446;-75
2023/12/15 11:11:37;;;;;;;2.80;1.53;;;;;;;18.71;58.88;102262.91;4918960;28;20792;-75
2023/12/15 11:14:04;;;;;;;2.63;1.10;;;;;;;18.67;58.95;102256.16;4910380;29;20673;-74
2023/12/15 11:16:34;;;;;;;2.37;1.20;;;;;;;18.69;58.50;102253.84;4934750;29;20489;-76